sensor_id;sensor_type;location;lat;lon;timestamp;temperature;humidity
8633;DHT22;4354;49.832;10.746;2022-11-20T00:00:17;-0.10;99.90
8633;DHT22;4354;49.832;10.746;2022-11-20T00:02:44;-0.10;99.90
8633;DHT22;4354;49.832;10.746;2022-11-20T00:05:11;-0.20;99.90
8633;DHT22;4354;49.832;10.746;2022-11-20T00:07:37;-0.20;99.90
8633;DHT22;4354;49.832;10.746;2022-11-20T00:10:04;-0.20;99.90
8633;DHT22;4354;49.832;10.746;2022-11-20T00:12:31;-0.10;99.90
8633;DHT22;4354;49.832;10.746;2022-11-20T00:14:58;0.00;99.90
8633;DHT22;4354;49.832;10.746;2022-11-20T00:17:25;0.00;99.90
8633;DHT22;4354;49.832;10.746;2022-11-20T00:19:51;0.00;99.90
8633;DHT22;4354;49.832;10.746;2022-11-20T00:22:18;0.00;99.90
8633;DHT22;4354;49.832;10.746;2022-11-20T00:24:45;0.00;99.90
8633;DHT22;4354;49.832;10.746;2022-11-20T00:27:11;0.10;99.90
8633;DHT22;4354;49.832;10.746;2022-11-20T00:29:38;0.00;99.90
8633;DHT22;4354;49.832;10.746;2022-11-20T00:32:05;0.00;99.90
8633;DHT22;4354;49.832;10.746;2022-11-20T00:34:32;0.00;99.90
8633;DHT22;4354;49.832;10.746;2022-11-20T00:36:58;0.00;99.90
8633;DHT22;4354;49.832;10.746;2022-11-20T00:39:25;0.00;99.90
8633;DHT22;4354;49.832;10.746;2022-11-20T00:41:54;0.00;99.90
8633;DHT22;4354;49.832;10.746;2022-11-20T00:44:20;-0.10;99.90
8633;DHT22;4354;49.832;10.746;2022-11-20T00:46:47;-0.10;99.90
8633;DHT22;4354;49.832;10.746;2022-11-20T00:49:14;-0.10;99.90
8633;DHT22;4354;49.832;10.746;2022-11-20T00:51:40;-0.10;99.90
8633;DHT22;4354;49.832;10.746;2022-11-20T00:54:07;-0.10;99.90
8633;DHT22;4354;49.832;10.746;2022-11-20T00:56:34;-0.10;99.90
8633;DHT22;4354;49.832;10.746;2022-11-20T00:59:00;0.00;99.90
8633;DHT22;4354;49.832;10.746;2022-11-20T01:01:28;0.00;99.90
8633;DHT22;4354;49.832;10.746;2022-11-20T01:03:59;0.00;99.90
8633;DHT22;4354;49.832;10.746;2022-11-20T01:06:34;0.00;99.90
8633;DHT22;4354;49.832;10.746;2022-11-20T01:09:05;0.00;99.90
8633;DHT22;4354;49.832;10.746;2022-11-20T01:11:35;0.00;99.90
8633;DHT22;4354;49.832;10.746;2022-11-20T01:14:04;0.00;99.90
8633;DHT22;4354;49.832;10.746;2022-11-20T01:16:40;0.00;99.90
8633;DHT22;4354;49.832;10.746;2022-11-20T01:19:13;0.10;99.90
8633;DHT22;4354;49.832;10.746;2022-11-20T01:21:45;0.10;99.90
8633;DHT22;4354;49.832;10.746;2022-11-20T01:24:14;0.10;99.90
8633;DHT22;4354;49.832;10.746;2022-11-20T01:26:43;0.10;99.90
8633;DHT22;4354;49.832;10.746;2022-11-20T01:29:13;0.10;99.90
8633;DHT22;4354;49.832;10.746;2022-11-20T01:31:41;0.10;99.90
8633;DHT22;4354;49.832;10.746;2022-11-20T01:34:10;0.10;99.90
8633;DHT22;4354;49.832;10.746;2022-11-20T01:36:39;0.10;99.90
8633;DHT22;4354;49.832;10.746;2022-11-20T01:39:11;0.10;99.90
8633;DHT22;4354;49.832;10.746;2022-11-20T01:41:38;0.00;99.90
8633;DHT22;4354;49.832;10.746;2022-11-20T01:44:53;0.00;99.90
8633;DHT22;4354;49.832;10.746;2022-11-20T01:47:25;0.00;99.90
8633;DHT22;4354;49.832;10.746;2022-11-20T01:50:04;0.10;99.90
8633;DHT22;4354;49.832;10.746;2022-11-20T01:52:50;0.10;99.90
8633;DHT22;4354;49.832;10.746;2022-11-20T01:55:22;0.00;99.90
8633;DHT22;4354;49.832;10.746;2022-11-20T01:57:50;0.00;99.90
8633;DHT22;4354;49.832;10.746;2022-11-20T02:00:19;0.00;99.90
8633;DHT22;4354;49.832;10.746;2022-11-20T02:02:50;0.00;99.90
8633;DHT22;4354;49.832;10.746;2022-11-20T02:05:27;0.00;99.90
8633;DHT22;4354;49.832;10.746;2022-11-20T02:07:56;0.00;99.90
8633;DHT22;4354;49.832;10.746;2022-11-20T02:10:24;0.00;99.90
8633;DHT22;4354;49.832;10.746;2022-11-20T02:12:52;0.00;99.90
8633;DHT22;4354;49.832;10.746;2022-11-20T02:15:38;0.00;99.90
8633;DHT22;4354;49.832;10.746;2022-11-20T02:18:05;0.00;99.90
8633;DHT22;4354;49.832;10.746;2022-11-20T02:20:32;0.00;99.90
8633;DHT22;4354;49.832;10.746;2022-11-20T02:25:42;0.00;99.90
8633;DHT22;4354;49.832;10.746;2022-11-20T02:28:09;0.00;99.90
8633;DHT22;4354;49.832;10.746;2022-11-20T02:30:36;0.10;99.90
8633;DHT22;4354;49.832;10.746;2022-11-20T02:33:03;0.10;99.90
8633;DHT22;4354;49.832;10.746;2022-11-20T02:38:00;0.00;99.90
8633;DHT22;4354;49.832;10.746;2022-11-20T02:40:28;0.00;99.90
8633;DHT22;4354;49.832;10.746;2022-11-20T02:42:55;0.00;99.90
8633;DHT22;4354;49.832;10.746;2022-11-20T02:45:23;0.00;99.90
8633;DHT22;4354;49.832;10.746;2022-11-20T02:47:51;0.00;99.90
8633;DHT22;4354;49.832;10.746;2022-11-20T02:50:18;0.00;99.90
8633;DHT22;4354;49.832;10.746;2022-11-20T02:52:45;0.10;99.90
8633;DHT22;4354;49.832;10.746;2022-11-20T02:55:11;0.00;99.90
8633;DHT22;4354;49.832;10.746;2022-11-20T02:57:38;0.00;99.90
8633;DHT22;4354;49.832;10.746;2022-11-20T03:00:06;-0.10;99.90
8633;DHT22;4354;49.832;10.746;2022-11-20T03:02:33;0.00;99.90
8633;DHT22;4354;49.832;10.746;2022-11-20T03:05:00;0.00;99.90
8633;DHT22;4354;49.832;10.746;2022-11-20T03:07:27;0.00;99.90
8633;DHT22;4354;49.832;10.746;2022-11-20T03:09:53;-0.10;99.90
8633;DHT22;4354;49.832;10.746;2022-11-20T03:12:20;-0.10;99.90
8633;DHT22;4354;49.832;10.746;2022-11-20T03:14:47;-0.10;99.90
8633;DHT22;4354;49.832;10.746;2022-11-20T03:17:18;-0.10;99.90
8633;DHT22;4354;49.832;10.746;2022-11-20T03:19:45;-0.10;99.90
8633;DHT22;4354;49.832;10.746;2022-11-20T03:22:12;-0.10;99.90
8633;DHT22;4354;49.832;10.746;2022-11-20T03:24:39;-0.20;99.90
8633;DHT22;4354;49.832;10.746;2022-11-20T03:27:05;-0.10;99.90
8633;DHT22;4354;49.832;10.746;2022-11-20T03:29:32;-0.10;99.90
8633;DHT22;4354;49.832;10.746;2022-11-20T03:31:59;-0.10;99.90
8633;DHT22;4354;49.832;10.746;2022-11-20T03:34:25;-0.10;99.90
8633;DHT22;4354;49.832;10.746;2022-11-20T03:36:52;-0.20;99.90
8633;DHT22;4354;49.832;10.746;2022-11-20T03:39:19;-0.20;99.90
8633;DHT22;4354;49.832;10.746;2022-11-20T03:41:46;-0.20;99.90
8633;DHT22;4354;49.832;10.746;2022-11-20T03:44:13;-0.30;99.90
8633;DHT22;4354;49.832;10.746;2022-11-20T03:46:39;-0.20;99.90
8633;DHT22;4354;49.832;10.746;2022-11-20T03:49:06;-0.30;99.90
8633;DHT22;4354;49.832;10.746;2022-11-20T03:51:34;-0.30;99.90
8633;DHT22;4354;49.832;10.746;2022-11-20T03:54:06;-0.30;99.90
8633;DHT22;4354;49.832;10.746;2022-11-20T03:56:34;-0.30;99.90
8633;DHT22;4354;49.832;10.746;2022-11-20T03:59:03;-0.30;99.90
8633;DHT22;4354;49.832;10.746;2022-11-20T04:01:32;-0.30;99.90
8633;DHT22;4354;49.832;10.746;2022-11-20T04:03:59;-0.30;99.90
8633;DHT22;4354;49.832;10.746;2022-11-20T04:06:33;-0.30;99.90
8633;DHT22;4354;49.832;10.746;2022-11-20T04:09:00;-0.30;99.90
8633;DHT22;4354;49.832;10.746;2022-11-20T04:11:29;-0.20;99.90
8633;DHT22;4354;49.832;10.746;2022-11-20T04:13:59;-0.30;99.90
8633;DHT22;4354;49.832;10.746;2022-11-20T04:16:27;-0.30;99.90
8633;DHT22;4354;49.832;10.746;2022-11-20T04:18:57;-0.30;99.90
8633;DHT22;4354;49.832;10.746;2022-11-20T04:21:25;-0.30;99.90
8633;DHT22;4354;49.832;10.746;2022-11-20T04:23:52;-0.30;99.90
8633;DHT22;4354;49.832;10.746;2022-11-20T04:26:21;-0.30;99.90
8633;DHT22;4354;49.832;10.746;2022-11-20T04:28:48;-0.30;99.90
8633;DHT22;4354;49.832;10.746;2022-11-20T04:31:17;-0.30;99.90
8633;DHT22;4354;49.832;10.746;2022-11-20T04:33:44;-0.30;99.90
8633;DHT22;4354;49.832;10.746;2022-11-20T04:36:17;-0.40;99.90
8633;DHT22;4354;49.832;10.746;2022-11-20T04:38:44;-0.40;99.90
8633;DHT22;4354;49.832;10.746;2022-11-20T04:41:15;-0.40;99.90
8633;DHT22;4354;49.832;10.746;2022-11-20T04:43:46;-0.40;99.90
8633;DHT22;4354;49.832;10.746;2022-11-20T04:46:15;-0.40;99.90
8633;DHT22;4354;49.832;10.746;2022-11-20T04:48:41;-0.30;99.90
8633;DHT22;4354;49.832;10.746;2022-11-20T04:51:08;-0.30;99.90
8633;DHT22;4354;49.832;10.746;2022-11-20T04:53:35;-0.30;99.90
8633;DHT22;4354;49.832;10.746;2022-11-20T04:56:04;-0.40;99.90
8633;DHT22;4354;49.832;10.746;2022-11-20T04:58:31;-0.30;99.90
8633;DHT22;4354;49.832;10.746;2022-11-20T05:03:32;-0.20;99.90
8633;DHT22;4354;49.832;10.746;2022-11-20T05:06:06;-0.30;99.90
8633;DHT22;4354;49.832;10.746;2022-11-20T05:08:33;-0.20;99.90
8633;DHT22;4354;49.832;10.746;2022-11-20T05:11:09;-0.30;99.90
8633;DHT22;4354;49.832;10.746;2022-11-20T05:13:37;-0.30;99.90
8633;DHT22;4354;49.832;10.746;2022-11-20T05:16:09;-0.30;99.90
8633;DHT22;4354;49.832;10.746;2022-11-20T05:18:37;-0.40;99.90
8633;DHT22;4354;49.832;10.746;2022-11-20T05:23:40;-0.40;99.90
8633;DHT22;4354;49.832;10.746;2022-11-20T05:26:13;-0.40;99.90
8633;DHT22;4354;49.832;10.746;2022-11-20T05:28:41;-0.30;99.90
8633;DHT22;4354;49.832;10.746;2022-11-20T05:31:13;-0.30;99.90
8633;DHT22;4354;49.832;10.746;2022-11-20T05:33:41;-0.30;99.90
8633;DHT22;4354;49.832;10.746;2022-11-20T05:36:08;-0.30;99.90
8633;DHT22;4354;49.832;10.746;2022-11-20T05:38:35;-0.20;99.90
8633;DHT22;4354;49.832;10.746;2022-11-20T05:41:14;-0.20;99.90
8633;DHT22;4354;49.832;10.746;2022-11-20T05:43:42;-0.20;99.90
8633;DHT22;4354;49.832;10.746;2022-11-20T05:46:11;-0.10;99.90
8633;DHT22;4354;49.832;10.746;2022-11-20T05:48:40;-0.10;99.90
8633;DHT22;4354;49.832;10.746;2022-11-20T05:51:09;-0.10;99.90
8633;DHT22;4354;49.832;10.746;2022-11-20T05:53:36;-0.10;99.90
8633;DHT22;4354;49.832;10.746;2022-11-20T05:56:12;0.00;99.90
8633;DHT22;4354;49.832;10.746;2022-11-20T05:58:39;0.00;99.90
8633;DHT22;4354;49.832;10.746;2022-11-20T06:01:16;0.00;99.90
8633;DHT22;4354;49.832;10.746;2022-11-20T06:03:43;-0.10;99.90
8633;DHT22;4354;49.832;10.746;2022-11-20T06:06:14;-0.10;99.90
8633;DHT22;4354;49.832;10.746;2022-11-20T06:08:42;-0.10;99.90
8633;DHT22;4354;49.832;10.746;2022-11-20T06:11:10;-0.10;99.90
8633;DHT22;4354;49.832;10.746;2022-11-20T06:13:38;-0.20;99.90
8633;DHT22;4354;49.832;10.746;2022-11-20T06:16:08;-0.20;99.90
8633;DHT22;4354;49.832;10.746;2022-11-20T06:18:36;-0.20;99.90
8633;DHT22;4354;49.832;10.746;2022-11-20T06:21:08;-0.30;99.90
8633;DHT22;4354;49.832;10.746;2022-11-20T06:23:35;-0.30;99.90
8633;DHT22;4354;49.832;10.746;2022-11-20T06:26:04;-0.30;99.90
8633;DHT22;4354;49.832;10.746;2022-11-20T06:28:31;-0.30;99.90
8633;DHT22;4354;49.832;10.746;2022-11-20T06:30:58;-0.30;99.90
8633;DHT22;4354;49.832;10.746;2022-11-20T06:33:25;-0.30;99.90
8633;DHT22;4354;49.832;10.746;2022-11-20T06:35:52;-0.20;99.90
8633;DHT22;4354;49.832;10.746;2022-11-20T06:38:27;-0.30;99.90
8633;DHT22;4354;49.832;10.746;2022-11-20T06:40:54;-0.20;99.90
8633;DHT22;4354;49.832;10.746;2022-11-20T06:43:22;-0.10;99.90
8633;DHT22;4354;49.832;10.746;2022-11-20T06:45:53;-0.10;99.90
8633;DHT22;4354;49.832;10.746;2022-11-20T06:48:20;-0.10;99.90
8633;DHT22;4354;49.832;10.746;2022-11-20T06:50:47;-0.10;99.90
8633;DHT22;4354;49.832;10.746;2022-11-20T06:53:14;-0.10;99.90
8633;DHT22;4354;49.832;10.746;2022-11-20T06:55:44;-0.10;99.90
8633;DHT22;4354;49.832;10.746;2022-11-20T06:58:13;-0.10;99.90
8633;DHT22;4354;49.832;10.746;2022-11-20T07:00:40;-0.10;99.90
8633;DHT22;4354;49.832;10.746;2022-11-20T07:03:09;-0.10;99.90
8633;DHT22;4354;49.832;10.746;2022-11-20T07:05:36;0.00;99.90
8633;DHT22;4354;49.832;10.746;2022-11-20T07:08:03;0.00;99.90
8633;DHT22;4354;49.832;10.746;2022-11-20T07:10:31;-0.10;99.90
8633;DHT22;4354;49.832;10.746;2022-11-20T07:12:58;0.00;99.90
8633;DHT22;4354;49.832;10.746;2022-11-20T07:15:26;0.00;99.90
8633;DHT22;4354;49.832;10.746;2022-11-20T07:17:53;0.00;99.90
8633;DHT22;4354;49.832;10.746;2022-11-20T07:20:20;0.00;99.90
8633;DHT22;4354;49.832;10.746;2022-11-20T07:22:46;0.10;99.90
8633;DHT22;4354;49.832;10.746;2022-11-20T07:25:13;0.10;99.90
8633;DHT22;4354;49.832;10.746;2022-11-20T07:27:40;0.10;99.90
8633;DHT22;4354;49.832;10.746;2022-11-20T07:30:07;0.30;99.90
8633;DHT22;4354;49.832;10.746;2022-11-20T07:32:33;0.30;99.90
8633;DHT22;4354;49.832;10.746;2022-11-20T07:35:00;0.30;99.90
8633;DHT22;4354;49.832;10.746;2022-11-20T07:37:27;0.30;99.90
8633;DHT22;4354;49.832;10.746;2022-11-20T07:39:54;0.60;99.90
8633;DHT22;4354;49.832;10.746;2022-11-20T07:42:20;0.40;99.90
8633;DHT22;4354;49.832;10.746;2022-11-20T07:44:47;0.40;99.90
8633;DHT22;4354;49.832;10.746;2022-11-20T07:47:14;0.50;99.90
8633;DHT22;4354;49.832;10.746;2022-11-20T07:49:40;0.50;99.90
8633;DHT22;4354;49.832;10.746;2022-11-20T07:52:07;0.60;99.90
8633;DHT22;4354;49.832;10.746;2022-11-20T07:54:34;0.60;99.90
8633;DHT22;4354;49.832;10.746;2022-11-20T07:57:00;0.70;99.90
8633;DHT22;4354;49.832;10.746;2022-11-20T07:59:27;0.70;99.90
8633;DHT22;4354;49.832;10.746;2022-11-20T08:01:54;0.70;99.90
8633;DHT22;4354;49.832;10.746;2022-11-20T08:04:21;0.70;99.90
8633;DHT22;4354;49.832;10.746;2022-11-20T08:06:48;0.70;99.90
8633;DHT22;4354;49.832;10.746;2022-11-20T08:09:15;0.80;99.90
8633;DHT22;4354;49.832;10.746;2022-11-20T08:11:41;0.80;99.90
8633;DHT22;4354;49.832;10.746;2022-11-20T08:14:27;0.80;99.90
8633;DHT22;4354;49.832;10.746;2022-11-20T08:16:54;0.80;99.90
8633;DHT22;4354;49.832;10.746;2022-11-20T08:19:20;1.00;99.90
8633;DHT22;4354;49.832;10.746;2022-11-20T08:21:48;1.00;99.90
8633;DHT22;4354;49.832;10.746;2022-11-20T08:24:14;1.10;99.90
8633;DHT22;4354;49.832;10.746;2022-11-20T08:26:41;1.20;99.90
8633;DHT22;4354;49.832;10.746;2022-11-20T08:29:08;1.30;99.90
8633;DHT22;4354;49.832;10.746;2022-11-20T08:31:35;1.20;99.90
8633;DHT22;4354;49.832;10.746;2022-11-20T08:34:02;1.20;99.90
8633;DHT22;4354;49.832;10.746;2022-11-20T08:36:35;1.20;99.90
8633;DHT22;4354;49.832;10.746;2022-11-20T08:39:02;1.20;99.90
8633;DHT22;4354;49.832;10.746;2022-11-20T08:41:30;1.10;99.90
8633;DHT22;4354;49.832;10.746;2022-11-20T08:44:01;1.20;99.90
8633;DHT22;4354;49.832;10.746;2022-11-20T08:46:32;1.20;99.90
8633;DHT22;4354;49.832;10.746;2022-11-20T08:49:00;1.20;99.90
8633;DHT22;4354;49.832;10.746;2022-11-20T08:51:27;1.10;99.90
8633;DHT22;4354;49.832;10.746;2022-11-20T08:53:53;1.20;99.90
8633;DHT22;4354;49.832;10.746;2022-11-20T08:56:20;1.20;99.90
8633;DHT22;4354;49.832;10.746;2022-11-20T08:58:47;1.20;99.90
8633;DHT22;4354;49.832;10.746;2022-11-20T09:01:33;1.30;99.90
8633;DHT22;4354;49.832;10.746;2022-11-20T09:04:00;1.30;99.90
8633;DHT22;4354;49.832;10.746;2022-11-20T09:06:27;1.30;99.90
8633;DHT22;4354;49.832;10.746;2022-11-20T09:08:54;1.30;99.90
8633;DHT22;4354;49.832;10.746;2022-11-20T09:11:21;1.30;99.90
8633;DHT22;4354;49.832;10.746;2022-11-20T09:13:49;1.30;99.90
8633;DHT22;4354;49.832;10.746;2022-11-20T09:16:15;1.30;99.90
8633;DHT22;4354;49.832;10.746;2022-11-20T09:18:42;1.30;99.90
8633;DHT22;4354;49.832;10.746;2022-11-20T09:21:12;1.30;99.90
8633;DHT22;4354;49.832;10.746;2022-11-20T09:23:39;1.30;99.90
8633;DHT22;4354;49.832;10.746;2022-11-20T09:26:11;1.20;99.90
8633;DHT22;4354;49.832;10.746;2022-11-20T09:28:38;1.20;99.90
8633;DHT22;4354;49.832;10.746;2022-11-20T09:31:06;1.20;99.90
8633;DHT22;4354;49.832;10.746;2022-11-20T09:33:33;1.20;99.90
8633;DHT22;4354;49.832;10.746;2022-11-20T09:36:01;1.20;99.90
8633;DHT22;4354;49.832;10.746;2022-11-20T09:38:27;1.30;99.90
8633;DHT22;4354;49.832;10.746;2022-11-20T09:52:27;1.80;99.90
8633;DHT22;4354;49.832;10.746;2022-11-20T09:54:56;1.90;99.90
8633;DHT22;4354;49.832;10.746;2022-11-20T09:57:33;2.00;99.90
8633;DHT22;4354;49.832;10.746;2022-11-20T10:00:03;2.20;99.90
8633;DHT22;4354;49.832;10.746;2022-11-20T10:02:39;2.40;99.90
8633;DHT22;4354;49.832;10.746;2022-11-20T10:05:30;2.50;99.90
8633;DHT22;4354;49.832;10.746;2022-11-20T10:08:22;2.70;99.90
8633;DHT22;4354;49.832;10.746;2022-11-20T10:19:41;2.40;99.90
8633;DHT22;4354;49.832;10.746;2022-11-20T10:25:21;2.40;99.90
8633;DHT22;4354;49.832;10.746;2022-11-20T10:28:15;2.50;99.90
8633;DHT22;4354;49.832;10.746;2022-11-20T10:30:46;2.50;99.90
8633;DHT22;4354;49.832;10.746;2022-11-20T10:33:22;2.50;99.90
8633;DHT22;4354;49.832;10.746;2022-11-20T10:36:13;2.50;99.90
8633;DHT22;4354;49.832;10.746;2022-11-20T10:41:24;2.70;99.90
8633;DHT22;4354;49.832;10.746;2022-11-20T10:47:04;3.00;99.90
8633;DHT22;4354;49.832;10.746;2022-11-20T10:49:33;3.00;99.90
8633;DHT22;4354;49.832;10.746;2022-11-20T11:00:23;2.90;99.90
8633;DHT22;4354;49.832;10.746;2022-11-20T11:02:51;3.10;99.90
8633;DHT22;4354;49.832;10.746;2022-11-20T11:05:36;3.20;99.90
8633;DHT22;4354;49.832;10.746;2022-11-20T11:08:10;3.40;99.90
8633;DHT22;4354;49.832;10.746;2022-11-20T11:13:26;3.80;99.90
8633;DHT22;4354;49.832;10.746;2022-11-20T11:15:53;4.00;99.90
8633;DHT22;4354;49.832;10.746;2022-11-20T11:20:54;5.40;99.90
8633;DHT22;4354;49.832;10.746;2022-11-20T11:23:33;6.20;99.90
8633;DHT22;4354;49.832;10.746;2022-11-20T11:26:02;7.20;99.90
8633;DHT22;4354;49.832;10.746;2022-11-20T11:28:30;7.80;99.90
8633;DHT22;4354;49.832;10.746;2022-11-20T11:30:57;7.70;99.90
8633;DHT22;4354;49.832;10.746;2022-11-20T11:33:26;7.60;99.90
8633;DHT22;4354;49.832;10.746;2022-11-20T11:36:02;7.20;99.90
8633;DHT22;4354;49.832;10.746;2022-11-20T11:38:39;6.70;99.90
8633;DHT22;4354;49.832;10.746;2022-11-20T11:41:12;6.50;99.90
8633;DHT22;4354;49.832;10.746;2022-11-20T11:44:00;6.50;99.90
8633;DHT22;4354;49.832;10.746;2022-11-20T11:46:56;6.40;99.90
8633;DHT22;4354;49.832;10.746;2022-11-20T11:49:24;6.20;99.90
8633;DHT22;4354;49.832;10.746;2022-11-20T11:54:41;5.70;99.90
8633;DHT22;4354;49.832;10.746;2022-11-20T11:57:37;5.50;99.90
8633;DHT22;4354;49.832;10.746;2022-11-20T12:00:20;5.40;99.90
8633;DHT22;4354;49.832;10.746;2022-11-20T12:07:59;5.40;99.90
8633;DHT22;4354;49.832;10.746;2022-11-20T12:13:54;5.10;99.90
8633;DHT22;4354;49.832;10.746;2022-11-20T12:16:00;4.90;99.90
8633;DHT22;4354;49.832;10.746;2022-11-20T12:18:28;4.70;99.90
8633;DHT22;4354;49.832;10.746;2022-11-20T12:40:58;4.00;99.90
8633;DHT22;4354;49.832;10.746;2022-11-20T12:43:58;4.10;99.90
8633;DHT22;4354;49.832;10.746;2022-11-20T12:47:17;4.10;99.90
8633;DHT22;4354;49.832;10.746;2022-11-20T12:50:17;4.00;99.90
8633;DHT22;4354;49.832;10.746;2022-11-20T12:53:02;3.90;99.90
8633;DHT22;4354;49.832;10.746;2022-11-20T12:55:36;3.90;99.90
8633;DHT22;4354;49.832;10.746;2022-11-20T12:58:12;3.60;99.90
8633;DHT22;4354;49.832;10.746;2022-11-20T13:00:54;3.70;99.90
8633;DHT22;4354;49.832;10.746;2022-11-20T13:08:36;3.60;99.90
8633;DHT22;4354;49.832;10.746;2022-11-20T13:16:37;3.50;99.90
8633;DHT22;4354;49.832;10.746;2022-11-20T13:19:11;3.40;99.90
8633;DHT22;4354;49.832;10.746;2022-11-20T13:21:42;3.40;99.90
8633;DHT22;4354;49.832;10.746;2022-11-20T13:26:47;3.40;99.90
8633;DHT22;4354;49.832;10.746;2022-11-20T13:29:19;3.40;99.90
8633;DHT22;4354;49.832;10.746;2022-11-20T13:31:48;3.40;99.90
8633;DHT22;4354;49.832;10.746;2022-11-20T13:34:25;3.30;99.90
8633;DHT22;4354;49.832;10.746;2022-11-20T13:36:55;3.30;99.90
8633;DHT22;4354;49.832;10.746;2022-11-20T13:39:33;3.30;99.90
8633;DHT22;4354;49.832;10.746;2022-11-20T13:42:20;3.20;99.90
8633;DHT22;4354;49.832;10.746;2022-11-20T13:44:51;3.20;99.90
8633;DHT22;4354;49.832;10.746;2022-11-20T13:47:24;3.20;99.90
8633;DHT22;4354;49.832;10.746;2022-11-20T13:49:53;3.20;99.90
8633;DHT22;4354;49.832;10.746;2022-11-20T14:00:29;3.20;99.90
8633;DHT22;4354;49.832;10.746;2022-11-20T14:05:37;3.30;99.90
8633;DHT22;4354;49.832;10.746;2022-11-20T14:08:06;3.30;99.90
8633;DHT22;4354;49.832;10.746;2022-11-20T14:10:37;3.40;99.90
8633;DHT22;4354;49.832;10.746;2022-11-20T14:13:19;3.40;99.90
8633;DHT22;4354;49.832;10.746;2022-11-20T14:15:46;3.50;99.90
8633;DHT22;4354;49.832;10.746;2022-11-20T14:18:21;3.40;99.90
8633;DHT22;4354;49.832;10.746;2022-11-20T14:20:50;3.40;99.90
8633;DHT22;4354;49.832;10.746;2022-11-20T14:23:27;3.30;99.90
8633;DHT22;4354;49.832;10.746;2022-11-20T14:25:56;3.30;99.90
8633;DHT22;4354;49.832;10.746;2022-11-20T14:28:28;3.30;99.90
8633;DHT22;4354;49.832;10.746;2022-11-20T14:30:56;3.20;99.90
8633;DHT22;4354;49.832;10.746;2022-11-20T14:33:25;3.20;99.90
8633;DHT22;4354;49.832;10.746;2022-11-20T14:35:54;3.20;99.90
8633;DHT22;4354;49.832;10.746;2022-11-20T14:38:25;3.10;99.90
8633;DHT22;4354;49.832;10.746;2022-11-20T14:40:53;3.10;99.90
8633;DHT22;4354;49.832;10.746;2022-11-20T14:43:25;3.10;99.90
8633;DHT22;4354;49.832;10.746;2022-11-20T14:46:04;3.10;99.90
8633;DHT22;4354;49.832;10.746;2022-11-20T14:48:45;3.10;99.90
8633;DHT22;4354;49.832;10.746;2022-11-20T14:53:55;3.00;99.90
8633;DHT22;4354;49.832;10.746;2022-11-20T14:56:23;3.00;99.90
8633;DHT22;4354;49.832;10.746;2022-11-20T14:58:58;3.00;99.90
8633;DHT22;4354;49.832;10.746;2022-11-20T15:01:27;2.90;99.90
8633;DHT22;4354;49.832;10.746;2022-11-20T15:04:10;2.90;99.90
8633;DHT22;4354;49.832;10.746;2022-11-20T15:06:37;2.90;99.90
8633;DHT22;4354;49.832;10.746;2022-11-20T15:09:12;2.80;99.90
8633;DHT22;4354;49.832;10.746;2022-11-20T15:11:39;2.80;99.90
8633;DHT22;4354;49.832;10.746;2022-11-20T15:14:17;2.80;99.90
8633;DHT22;4354;49.832;10.746;2022-11-20T15:16:43;2.80;99.90
8633;DHT22;4354;49.832;10.746;2022-11-20T15:19:17;2.70;99.90
8633;DHT22;4354;49.832;10.746;2022-11-20T15:21:46;2.70;99.90
8633;DHT22;4354;49.832;10.746;2022-11-20T15:24:13;2.60;99.90
8633;DHT22;4354;49.832;10.746;2022-11-20T15:26:40;2.60;99.90
8633;DHT22;4354;49.832;10.746;2022-11-20T15:29:13;2.60;99.90
8633;DHT22;4354;49.832;10.746;2022-11-20T15:31:40;2.60;99.90
8633;DHT22;4354;49.832;10.746;2022-11-20T15:34:13;2.50;99.90
8633;DHT22;4354;49.832;10.746;2022-11-20T15:36:41;2.50;99.90
8633;DHT22;4354;49.832;10.746;2022-11-20T15:39:08;2.50;99.90
8633;DHT22;4354;49.832;10.746;2022-11-20T15:41:36;2.50;99.90
8633;DHT22;4354;49.832;10.746;2022-11-20T15:44:04;2.50;99.90
8633;DHT22;4354;49.832;10.746;2022-11-20T15:46:33;2.50;99.90
8633;DHT22;4354;49.832;10.746;2022-11-20T15:49:05;2.50;99.90
8633;DHT22;4354;49.832;10.746;2022-11-20T15:51:37;2.50;99.90
8633;DHT22;4354;49.832;10.746;2022-11-20T15:54:13;2.50;99.90
8633;DHT22;4354;49.832;10.746;2022-11-20T15:56:40;2.50;99.90
8633;DHT22;4354;49.832;10.746;2022-11-20T15:59:07;2.50;99.90
8633;DHT22;4354;49.832;10.746;2022-11-20T16:01:34;2.50;99.90
8633;DHT22;4354;49.832;10.746;2022-11-20T16:04:01;2.50;99.90
8633;DHT22;4354;49.832;10.746;2022-11-20T16:06:28;2.40;99.90
8633;DHT22;4354;49.832;10.746;2022-11-20T16:08:54;2.40;99.90
8633;DHT22;4354;49.832;10.746;2022-11-20T16:11:22;2.40;99.90
8633;DHT22;4354;49.832;10.746;2022-11-20T16:13:49;2.40;99.90
8633;DHT22;4354;49.832;10.746;2022-11-20T16:16:36;2.40;99.90
8633;DHT22;4354;49.832;10.746;2022-11-20T16:19:04;2.40;99.90
8633;DHT22;4354;49.832;10.746;2022-11-20T16:21:31;2.40;99.90
8633;DHT22;4354;49.832;10.746;2022-11-20T16:24:03;2.40;99.90
8633;DHT22;4354;49.832;10.746;2022-11-20T16:26:31;2.40;99.90
8633;DHT22;4354;49.832;10.746;2022-11-20T16:28:59;2.40;99.90
8633;DHT22;4354;49.832;10.746;2022-11-20T16:31:26;2.40;99.90
8633;DHT22;4354;49.832;10.746;2022-11-20T16:33:55;2.40;99.90
8633;DHT22;4354;49.832;10.746;2022-11-20T16:36:24;2.40;99.90
8633;DHT22;4354;49.832;10.746;2022-11-20T16:38:55;2.30;99.90
8633;DHT22;4354;49.832;10.746;2022-11-20T16:41:22;2.30;99.90
8633;DHT22;4354;49.832;10.746;2022-11-20T16:43:54;2.30;99.90
8633;DHT22;4354;49.832;10.746;2022-11-20T16:46:23;2.30;99.90
8633;DHT22;4354;49.832;10.746;2022-11-20T16:48:59;2.40;99.90
8633;DHT22;4354;49.832;10.746;2022-11-20T16:51:28;2.40;99.90
8633;DHT22;4354;49.832;10.746;2022-11-20T16:53:55;2.40;99.90
8633;DHT22;4354;49.832;10.746;2022-11-20T16:56:24;2.40;99.90
8633;DHT22;4354;49.832;10.746;2022-11-20T16:58:54;2.40;99.90
8633;DHT22;4354;49.832;10.746;2022-11-20T17:01:23;2.30;99.90
8633;DHT22;4354;49.832;10.746;2022-11-20T17:06:26;2.40;99.90
8633;DHT22;4354;49.832;10.746;2022-11-20T17:08:54;2.30;99.90
8633;DHT22;4354;49.832;10.746;2022-11-20T17:11:22;2.30;99.90
8633;DHT22;4354;49.832;10.746;2022-11-20T17:13:49;2.30;99.90
8633;DHT22;4354;49.832;10.746;2022-11-20T17:16:21;2.30;99.90
8633;DHT22;4354;49.832;10.746;2022-11-20T17:18:48;2.30;99.90
8633;DHT22;4354;49.832;10.746;2022-11-20T17:21:17;2.30;99.90
8633;DHT22;4354;49.832;10.746;2022-11-20T17:37:12;2.30;99.90
8633;DHT22;4354;49.832;10.746;2022-11-20T17:39:38;2.30;99.90
8633;DHT22;4354;49.832;10.746;2022-11-20T17:42:06;2.30;99.90
8633;DHT22;4354;49.832;10.746;2022-11-20T17:44:51;2.30;99.90
8633;DHT22;4354;49.832;10.746;2022-11-20T17:47:19;2.30;99.90
8633;DHT22;4354;49.832;10.746;2022-11-20T17:49:46;2.30;99.90
8633;DHT22;4354;49.832;10.746;2022-11-20T17:52:14;2.30;99.90
8633;DHT22;4354;49.832;10.746;2022-11-20T17:54:41;2.30;99.90
8633;DHT22;4354;49.832;10.746;2022-11-20T17:57:08;2.30;99.90
8633;DHT22;4354;49.832;10.746;2022-11-20T17:59:54;2.30;99.90
8633;DHT22;4354;49.832;10.746;2022-11-20T18:02:21;2.30;99.90
8633;DHT22;4354;49.832;10.746;2022-11-20T18:04:48;2.30;99.90
8633;DHT22;4354;49.832;10.746;2022-11-20T18:07:15;2.30;99.90
8633;DHT22;4354;49.832;10.746;2022-11-20T18:09:42;2.30;99.90
8633;DHT22;4354;49.832;10.746;2022-11-20T18:12:09;2.30;99.90
8633;DHT22;4354;49.832;10.746;2022-11-20T18:14:35;2.30;99.90
8633;DHT22;4354;49.832;10.746;2022-11-20T18:17:03;2.30;99.90
8633;DHT22;4354;49.832;10.746;2022-11-20T18:19:35;2.30;99.90
8633;DHT22;4354;49.832;10.746;2022-11-20T18:22:14;2.30;99.90